CheckWX is a tool to help pilots better visualize weather data.  It is not intended as a substitute for an official pre-flight weather briefing.

09:10:33 UTC

KDED METAR
Deland Municipal-Sidney H Taylor Field Airport
Deland, Florida, USA
Current

16 mins ago

KDED 220855Z AUTO 15004KT 10SM SCT095 21/20 A3012 RMK AO2
Observed
Feb-22 @ 08:55 UTC
Wind
  • 150° at 4 KTS
Visibility
10 SM
Flight Rules
VFR
Cloud Levels
  • Scattered at 9,500' AGL
Temperature
21°C / 70°F
Dewpoint
20°C / 68°F
Humidity
94%
Altimeter
30.12" Hg
Pressure
1020.02 hPa
Previous

36 mins ago

KDED 220835Z AUTO 15005KT 10SM SCT070 BKN095 21/20 A3012 RMK AO2
Observed
Feb-22 @ 08:35 UTC
Wind
  • 150° at 5 KTS
Visibility
10 SM
Flight Rules
VFR
Cloud Levels
  • Scattered at 7,000' AGL
  • Broken at 9,500' AGL
Temperature
21°C / 70°F
Dewpoint
20°C / 68°F
Humidity
94%
Altimeter
30.12" Hg
Pressure
1020.02 hPa
Previous

56 mins ago

KDED 220815Z AUTO 16006KT 10SM BKN065 OVC075 22/20 A3012 RMK AO2
Observed
Feb-22 @ 08:15 UTC
Wind
  • 160° at 6 KTS
Visibility
10 SM
Flight Rules
VFR
Cloud Levels
  • Broken at 6,500' AGL
  • Overcast at 7,500' AGL
Temperature
22°C / 72°F
Dewpoint
20°C / 68°F
Humidity
88%
Altimeter
30.12" Hg
Pressure
1020.02 hPa